Flight Track Log - Related Links

Times and Time Zones

All times are in EDT time to prevent confusion due to time zone crossing. See the AAL1326 flight status page for this flight to view local times or setup timezone preferences in your user account.

Time Position Orientation Groundspeed Altitude Reporting Facility
EDT Latitude Longitude Course Direction KTS MPH feet Rate Location/Type
Tue 07:00:47 PM 41.9450 -87.9060 222° Southwest 157 181 2,200  Level FlightAware ADS-B
Tue 07:01:07 PM 41.9300 -87.9100 191° South 164 189 3,100 2,182 Climbing FlightAware ADS-B
Tue 07:01:42 PM 41.9000 -87.9060 174° South 214 246 4,200 2,400 Climbing FlightAware ADS-B
Tue 07:02:12 PM 41.8680 -87.9020 175° South 239 275 5,700 3,200 Climbing FlightAware ADS-B
Tue 07:02:42 PM 41.8340 -87.8970 174° South 254 292 7,400 3,491 Climbing FlightAware ADS-B
Tue 07:03:07 PM 41.8030 -87.8910 172° South 261 300 8,900 3,343 Climbing FlightAware ADS-B
Tue 07:03:52 PM 41.7480 -87.8870 177° South 275 316 11,300 2,894 Climbing FlightAware ADS-B
Tue 07:04:32 PM 41.6960 -87.8860 179° South 297 342 13,000 2,475 Climbing FlightAware ADS-B
Tue 07:05:12 PM 41.6360 -87.8840 179° South 330 380 14,600 2,118 Climbing FlightAware ADS-B
Tue 07:05:57 PM 41.5650 -87.8820 179° South 367 422 16,000 2,188 Climbing FlightAware ADS-B
Tue 07:06:37 PM 41.4970 -87.8800 179° South 382 440 17,700 2,471 Climbing FlightAware ADS-B
Tue 07:07:22 PM 41.4170 -87.8780 179° South 394 453 19,500 2,188 Climbing FlightAware ADS-B
Tue 07:08:02 PM 41.3460 -87.8830 183° South 412 474 20,800 2,175 Climbing FlightAware ADS-B
Tue 07:08:42 PM 41.2610 -87.8910 184° South 424 488 22,400 2,329 Climbing FlightAware ADS-B
Tue 07:09:27 PM 41.1700 -87.8900 180° South 430 495 24,100 2,188 Climbing FlightAware ADS-B
Tue 07:10:07 PM 41.0940 -87.8880 179° South 434 499 25,500 1,950 Climbing FlightAware ADS-B
Tue 07:10:47 PM 41.0150 -87.8850 178° South 440 506 26,700 1,600 Climbing FlightAware ADS-B
Tue 07:11:22 PM 40.9460 -87.8830 179° South 449 517 27,500 1,482 Climbing FlightAware ADS-B
Tue 07:12:12 PM 40.8330 -87.8800 179° South 463 533 28,800 1,453 Climbing FlightAware ADS-B
Tue 07:12:57 PM 40.7370 -87.8770 179° South 469 540 29,800 1,624 Climbing FlightAware ADS-B
Tue 07:13:37 PM 40.6510 -87.8740 178° South 465 535 31,100 1,333 Climbing FlightAware ADS-B
Tue 07:14:27 PM 40.5490 -87.8700 178° South 464 534 31,800 1,560 Climbing FlightAware ADS-B
Tue 07:15:17 PM 40.4360 -87.8680 179° South 463 533 33,700 1,867 Climbing FlightAware ADS-B
Tue 07:15:57 PM 40.3510 -87.8650 178° South 462 532 34,600 1,412 Climbing FlightAware ADS-B
Tue 07:16:42 PM 40.2540 -87.8620 179° South 458 527 35,700 1,412 Climbing FlightAware ADS-B
Tue 07:17:22 PM 40.1760 -87.8590 178° South 454 522 36,600 1,371 Climbing FlightAware ADS-B
Tue 07:17:52 PM 40.1090 -87.8560 178° South 451 519 37,300 1,200 Climbing FlightAware ADS-B
Tue 07:18:47 PM 39.9980 -87.8510 178° South 446 513 38,300 947 Climbing FlightAware ADS-B
Tue 07:19:27 PM 39.9120 -87.8460 177° South 449 517 38,800 525 Climbing FlightAware ADS-B
Tue 07:20:07 PM 39.8320 -87.8310 172° South 450 518 39,000 141 Climbing FlightAware ADS-B
Tue 07:20:52 PM 39.7460 -87.7990 164° South 454 522 39,000  Level FlightAware ADS-B
Tue 07:21:32 PM 39.6570 -87.7710 166° South 453 521 39,000  Level FlightAware ADS-B
Tue 07:22:17 PM 39.5700 -87.7430 166° South 444 511 39,000  Level FlightAware ADS-B
Tue 07:22:52 PM 39.5020 -87.7210 166° South 443 510 39,000  Level FlightAware ADS-B
Tue 07:23:42 PM 39.3970 -87.6860 166° South 443 510 39,000  Level FlightAware ADS-B
Tue 07:24:22 PM 39.3190 -87.6610 166° South 443 510 39,000  Level FlightAware ADS-B
Tue 07:25:02 PM 39.2390 -87.6360 166° South 443 510 39,000  Level FlightAware ADS-B
Tue 07:25:47 PM 39.1470 -87.6060 166° South 443 510 39,000  Level FlightAware ADS-B
Tue 07:26:27 PM 39.0680 -87.5810 166° South 443 510 39,000  Level FlightAware ADS-B
Tue 07:27:12 PM 38.9790 -87.5530 166° South 442 509 39,000  Level FlightAware ADS-B
Tue 07:27:52 PM 38.9010 -87.5280 166° South 444 511 39,000  Level FlightAware ADS-B
Tue 07:28:32 PM 38.8210 -87.5030 166° South 446 513 39,000  Level FlightAware ADS-B
Tue 07:29:17 PM 38.7280 -87.4730 166° South 446 513 39,000  Level FlightAware ADS-B
Tue 07:29:57 PM 38.6470 -87.4480 166° South 445 512 39,000  Level FlightAware ADS-B
Tue 07:30:37 PM 38.5720 -87.4240 166° South 439 505 39,000  Level FlightAware ADS-B
Tue 07:31:22 PM 38.4830 -87.3960 166° South 438 504 39,000  Level FlightAware ADS-B
Tue 07:32:02 PM 38.4030 -87.3710 166° South 437 503 39,000  Level FlightAware ADS-B
Tue 07:32:47 PM 38.3120 -87.3430 166° South 436 502 39,000  Level FlightAware ADS-B
Tue 07:33:27 PM 38.2350 -87.3190 166° South 435 501 39,000  Level FlightAware ADS-B
Tue 07:34:12 PM 38.1490 -87.2920 166° South 435 501 39,000  Level FlightAware ADS-B
Tue 07:34:52 PM 38.0700 -87.2680 167° South 434 499 39,000  Level FlightAware ADS-B
Tue 07:35:32 PM 37.9920 -87.2440 166° South 434 499 39,000  Level FlightAware ADS-B
Tue 07:36:12 PM 37.9150 -87.2200 166° South 436 502 39,000  Level FlightAware ADS-B
Tue 07:36:57 PM 37.8240 -87.1920 166° South 437 503 39,000  Level FlightAware ADS-B
Tue 07:37:42 PM 37.7360 -87.1650 166° South 441 507 39,000  Level FlightAware ADS-B
Tue 07:38:22 PM 37.6560 -87.1400 166° South 442 509 39,000  Level FlightAware ADS-B
Tue 07:39:02 PM 37.5770 -87.1160 166° South 444 511 39,000  Level FlightAware ADS-B
Tue 07:39:47 PM 37.4840 -87.0880 167° South 446 513 39,000  Level FlightAware ADS-B
Tue 07:40:27 PM 37.4050 -87.0640 166° South 443 510 39,000  Level FlightAware ADS-B
Tue 07:41:12 PM 37.3170 -87.0370 166° South 439 505 39,000  Level FlightAware ADS-B
Tue 07:41:52 PM 37.2430 -87.0150 167° South 439 505 39,000  Level FlightAware ADS-B
Tue 07:42:12 PM 37.1957 -87.0002 166° South 440 506 39,000  Level FlightAware ADS-B
Tue 07:43:08 PM 37.0834 -86.9663 166° South 442 509 39,000  Level FlightAware ADS-B
Tue 07:43:57 PM 36.9920 -86.9390 167° South 442 509 39,000  Level FlightAware ADS-B
Tue 07:44:13 PM 36.9545 -86.9276 166° South 442 509 39,000  Level FlightAware ADS-B
Tue 07:44:53 PM 36.8750 -86.9038 167° South 441 507 39,000  Level FlightAware ADS-B
Tue 07:45:32 PM 36.7979 -86.8808 167° South 439 505 39,000  Level FlightAware ADS-B
Tue 07:46:03 PM 36.7372 -86.8628 167° South 438 504 39,000  Level FlightAware ADS-B
Tue 07:46:35 PM 36.6737 -86.8438 167° South 437 503 39,000  Level FlightAware ADS-B
Tue 07:47:09 PM 36.6078 -86.8240 166° South 437 503 39,000  Level FlightAware ADS-B
Tue 07:48:07 PM 36.4980 -86.7920 167° South 434 499 39,000  Level FlightAware ADS-B
Tue 07:48:22 PM 36.4642 -86.7816 166° South 39,000  Level FlightAware ADS-B
Tue 07:48:26 PM 36.4568 -86.7793 166° South 435 501 39,000  Level FlightAware ADS-B
Tue 07:49:32 PM 36.3300 -86.7420 167° South 436 502 39,000  Level FlightAware ADS-B
Tue 07:50:17 PM 36.2430 -86.7160 166° South 438 504 39,000  Level FlightAware ADS-B
Tue 07:50:57 PM 36.1650 -86.6910 165° South 445 512 39,000  Level FlightAware ADS-B
Tue 07:51:29 PM 36.0994 -86.6501 153° Southeast 468 539 39,000  Level FlightAware ADS-B
Tue 07:52:09 PM 36.0303 -86.5859 143° Southeast 470 541 39,000  Level FlightAware ADS-B
Tue 07:52:46 PM 35.9653 -86.5255 143° Southeast 472 543 39,000  Level FlightAware ADS-B
Tue 07:53:18 PM 35.9103 -86.4743 143° Southeast 471 542 39,000  Level FlightAware ADS-B
Tue 07:54:27 PM 35.7940 -86.3660 143° Southeast 472 543 39,000  Level FlightAware ADS-B
Tue 07:54:57 PM 35.7366 -86.3136 143° Southeast 471 542 39,000  Level FlightAware ADS-B
Tue 07:55:28 PM 35.6836 -86.2651 143° Southeast 471 542 39,000  Level FlightAware ADS-B
Tue 07:55:58 PM 35.6312 -86.2171 143° Southeast 472 543 39,000  Level FlightAware ADS-B
Tue 07:56:28 PM 35.5781 -86.1685 143° Southeast 472 543 39,000  Level FlightAware ADS-B
Tue 07:56:59 PM 35.5237 -86.1183 143° Southeast 471 542 39,000  Level FlightAware ADS-B
Tue 07:57:31 PM 35.4681 -86.0675 143° Southeast 469 540 39,000  Level FlightAware ADS-B
Tue 07:58:12 PM 35.4050 -86.0100 143° Southeast 470 541 39,000  Level FlightAware ADS-B
Tue 07:58:52 PM 35.3360 -85.9470 143° Southeast 471 542 39,000  Level FlightAware ADS-B
Tue 07:59:15 PM 35.2866 -85.9026 144° Southeast 473 544 39,000  Level FlightAware ADS-B
Tue 07:59:43 PM 35.2375 -85.8582 144° Southeast 472 543 39,000  Level FlightAware ADS-B
Tue 08:00:14 PM 35.1837 -85.8095 143° Southeast 472 543 39,000  Level FlightAware ADS-B
Tue 08:00:45 PM 35.1281 -85.7592 143° Southeast 475 547 39,000  Level FlightAware ADS-B
Tue 08:01:18 PM 35.0706 -85.7071 143° Southeast 477 549 39,000  Level FlightAware ADS-B
Tue 08:01:49 PM 35.0156 -85.6573 143° Southeast 479 551 39,000  Level FlightAware ADS-B
Tue 08:02:19 PM 34.9619 -85.6089 144° Southeast 480 552 39,000  Level FlightAware ADS-B
Tue 08:02:50 PM 34.9070 -85.5597 144° Southeast 480 552 39,000  Level FlightAware ADS-B
Tue 08:03:20 PM 34.8527 -85.5111 144° Southeast 480 552 39,000  Level FlightAware ADS-B
Tue 08:03:52 PM 34.7954 -85.4600 144° Southeast 478 550 39,000  Level FlightAware ADS-B
Tue 08:04:25 PM 34.7363 -85.4072 144° Southeast 478 550 39,000  Level FlightAware ADS-B
Tue 08:05:00 PM 34.6748 -85.3524 144° Southeast 478 550 39,000  Level FlightAware ADS-B
Tue 08:05:34 PM 34.6129 -85.2976 144° Southeast 478 550 39,000  Level FlightAware ADS-B
Tue 08:06:07 PM 34.5545 -85.2458 144° Southeast 479 551 39,000  Level FlightAware ADS-B
Tue 08:07:21 PM 34.4235 -85.1294 144° Southeast 478 550 39,000  Level FlightAware ADS-B
Tue 08:07:52 PM 34.3678 -85.0799 144° Southeast 479 551 39,000  Level FlightAware ADS-B
Tue 08:08:23 PM 34.3120 -85.0308 144° Southeast 480 552 39,000 -281 Level FlightAware ADS-B
Tue 08:08:56 PM 34.2536 -84.9795 144° Southeast 475 547 38,700 -857 Descending FlightAware ADS-B
Tue 08:09:26 PM 34.2001 -84.9326 144° Southeast 466 536 38,100 -1,000 Descending FlightAware ADS-B
Tue 08:09:56 PM 34.1468 -84.8865 144° Southeast 470 541 37,700 -952 Descending FlightAware ADS-B
Tue 08:10:29 PM 34.0890 -84.8360 144° Southeast 474 545 37,100 -646 Descending FlightAware ADS-B
Tue 08:11:01 PM 34.0321 -84.7860 144° Southeast 479 551 37,000 -82 Descending FlightAware ADS-B
Tue 08:11:42 PM 33.9680 -84.7300 144° Southeast 477 549 37,000  Level FlightAware ADS-B
Tue 08:11:57 PM 33.9318 -84.6983 144° Southeast 477 549 37,000  Level FlightAware ADS-B
Tue 08:12:31 PM 33.8714 -84.6456 144° Southeast 475 547 37,000  Level FlightAware ADS-B
Tue 08:13:07 PM 33.8170 -84.5980 144° Southeast 474 545 37,000  Level FlightAware ADS-B
Tue 08:13:11 PM 33.8002 -84.5837 145° Southeast 475 547 37,000  Level FlightAware ADS-B
Tue 08:13:41 PM 33.7456 -84.5365 144° Southeast 473 544 37,000  Level FlightAware ADS-B
Tue 08:14:27 PM 33.6648 -84.4667 144° Southeast 471 542 37,000  Level FlightAware ADS-B
Tue 08:15:12 PM 33.5804 -84.4147 153° Southeast 453 521 37,000  Level FlightAware ADS-B
Tue 08:15:44 PM 33.5164 -84.3878 161° South 450 518 37,000  Level FlightAware ADS-B
Tue 08:16:23 PM 33.4406 -84.3562 161° South 448 516 37,000  Level FlightAware ADS-B
Tue 08:16:54 PM 33.3790 -84.3306 161° South 448 516 37,000  Level FlightAware ADS-B
Tue 08:17:25 PM 33.3202 -84.3061 161° South 445 512 37,000  Level FlightAware ADS-B
Tue 08:18:02 PM 33.2560 -84.2800 161° South 443 510 37,000  Level FlightAware ADS-B
Tue 08:18:42 PM 33.1810 -84.2480 160° South 441 507 37,000  Level FlightAware ADS-B
Tue 08:19:22 PM 33.1000 -84.2150 161° South 440 506 37,000  Level FlightAware ADS-B
Tue 08:20:52 PM 32.9330 -84.1460 161° South 439 505 37,000  Level FlightAware ADS-B
Tue 08:21:42 PM 32.8350 -84.1050 161° South 439 505 37,000  Level FlightAware ADS-B
Tue 08:22:27 PM 32.7480 -84.0700 161° South 439 505 37,000  Level FlightAware ADS-B
Tue 08:23:37 PM 32.6200 -84.0170 161° South 442 509 37,000  Level FlightAware ADS-B
Tue 08:24:17 PM 32.5320 -83.9810 161° South 445 512 37,000  Level FlightAware ADS-B
Tue 08:25:02 PM 32.4430 -83.9450 161° South 439 505 37,000  Level FlightAware ADS-B
Tue 08:25:42 PM 32.3730 -83.9160 161° South 440 506 37,000  Level FlightAware ADS-B
Tue 08:26:17 PM 32.3090 -83.8890 160° South 440 506 37,000  Level FlightAware ADS-B
Tue 08:27:07 PM 32.2280 -83.8540 160° South 440 506 37,000  Level FlightAware ADS-B
Tue 08:27:47 PM 32.1630 -83.8260 160° South 440 506 37,000  Level FlightAware ADS-B
Tue 08:28:27 PM 32.0980 -83.7980 160° South 440 506 37,000  Level FlightAware ADS-B
Tue 08:29:07 PM 32.0330 -83.7700 160° South 440 506 37,000  Level FlightAware ADS-B
Tue 08:29:47 PM 31.9680 -83.7420 160° South 440 506 37,000  Level FlightAware ADS-B
Tue 08:30:37 PM 31.8870 -83.7070 160° South 440 506 37,000  Level FlightAware ADS-B
Tue 08:31:17 PM 31.8220 -83.6790 160° South 440 506 37,000  Level FlightAware ADS-B
Tue 08:31:57 PM 31.7570 -83.6510 160° South 440 506 37,000  Level FlightAware ADS-B
Tue 08:32:37 PM 31.6910 -83.6240 161° South 440 506 37,000  Level FlightAware ADS-B
Tue 08:33:17 PM 31.6260 -83.5960 160° South 440 506 37,000  Level FlightAware ADS-B
Tue 08:34:07 PM 31.5450 -83.5610 160° South 440 506 37,000  Level FlightAware ADS-B
Tue 08:34:37 PM 31.4960 -83.5400 160° South 440 506 37,000  Level FlightAware ADS-B
Tue 08:35:17 PM 31.4310 -83.5120 160° South 440 506 37,000  Level FlightAware ADS-B
Tue 08:36:03 PM 31.1464 -83.4242 160° South 445 512 37,000 849 Level Jacksonville Center
Tue 08:37:03 PM 31.0319 -83.3800 162° South 445 512 38,500 992 Climbing Jacksonville Center
Tue 08:38:04 PM 30.9150 -83.3333 161° South 440 506 39,000 250 Climbing Jacksonville Center
Tue 08:39:03 PM 30.8047 -83.2892 161° South 440 506 39,000  Level Jacksonville Center
Tue 08:40:03 PM 30.6919 -83.2331 157° South 434 499 39,000  Level Jacksonville Center
Tue 08:41:03 PM 30.5794 -83.1772 157° South 434 499 39,000 -50 Level Jacksonville Center
Tue 08:42:04 PM 30.4625 -83.1192 157° South 439 505 38,900  Descending Jacksonville Center
Tue 08:43:03 PM 30.3500 -83.0633 157° South 439 505 39,000  Climbing Jacksonville Center
Tue 08:44:03 PM 30.2353 -83.0056 156° South 439 505 38,900  Descending Jacksonville Center
Tue 08:49:22 PM 29.6350 -82.7100 156° South 39,000 17 Climbing FlightAware ADS-B
Tue 08:49:52 PM 29.5670 -82.6770 157° South 448 516 39,000  Level FlightAware ADS-B
Tue 08:50:32 PM 29.4960 -82.6420 157° South 447 514 39,000  Level FlightAware ADS-B
Tue 08:51:12 PM 29.4230 -82.6060 157° South 441 507 39,000  Level FlightAware ADS-B
Tue 08:51:57 PM 29.3380 -82.5650 157° South 441 507 39,000  Level FlightAware ADS-B
Tue 08:52:37 PM 29.2550 -82.5250 157° South 449 517 39,000  Level FlightAware ADS-B
Tue 08:53:22 PM 29.1670 -82.4810 156° South 450 518 39,000  Level FlightAware ADS-B
Tue 08:54:02 PM 29.0910 -82.4520 162° South 437 503 39,000  Level FlightAware ADS-B
Tue 08:54:42 PM 29.0110 -82.4510 179° South 428 493 39,000  Level FlightAware ADS-B
Tue 08:55:27 PM 28.9220 -82.4560 183° South 427 491 39,000  Level FlightAware ADS-B
Tue 08:56:07 PM 28.8420 -82.4610 183° South 427 491 39,000  Level FlightAware ADS-B
Tue 08:56:52 PM 28.7510 -82.4670 183° South 427 491 39,000  Level FlightAware ADS-B
Tue 08:57:32 PM 28.6750 -82.4710 183° South 427 491 39,000  Level FlightAware ADS-B
Tue 08:58:12 PM 28.5960 -82.4750 183° South 425 489 39,000  Level FlightAware ADS-B
Tue 08:58:57 PM 28.5060 -82.4800 183° South 427 491 39,000  Level FlightAware ADS-B
Tue 08:59:37 PM 28.4260 -82.4850 183° South 431 496 39,000  Level FlightAware ADS-B
Tue 09:00:22 PM 28.3350 -82.4900 183° South 431 496 39,000  Level FlightAware ADS-B
Tue 09:01:02 PM 28.2540 -82.4940 182° South 431 496 39,000  Level FlightAware ADS-B
Tue 09:01:42 PM 28.1780 -82.4990 183° South 431 496 39,000  Level FlightAware ADS-B
Tue 09:02:27 PM 28.0860 -82.5050 183° South 430 495 39,000  Level FlightAware ADS-B
Tue 09:03:07 PM 28.0060 -82.5100 183° South 432 497 39,000  Level FlightAware ADS-B
Tue 09:03:52 PM 27.9160 -82.4970 173° South 451 519 39,000  Level FlightAware ADS-B
Tue 09:04:32 PM 27.8390 -82.4680 162° South 450 518 39,000  Level FlightAware ADS-B
Tue 09:05:12 PM 27.7590 -82.4390 162° South 446 513 39,000  Level FlightAware ADS-B
Tue 09:05:57 PM 27.6690 -82.4060 162° South 443 510 39,000  Level FlightAware ADS-B
Tue 09:06:37 PM 27.5920 -82.3770 162° South 443 510 39,000  Level FlightAware ADS-B
Tue 09:07:17 PM 27.5120 -82.3480 162° South 443 510 39,000 -141 Level FlightAware ADS-B
Tue 09:08:02 PM 27.4240 -82.3160 162° South 441 507 38,800 -565 Descending FlightAware ADS-B
Tue 09:08:42 PM 27.3500 -82.2890 162° South 445 512 38,200 -918 Descending FlightAware ADS-B
Tue 09:09:27 PM 27.2610 -82.2560 162° South 449 517 37,500 -988 Descending FlightAware ADS-B
Tue 09:10:07 PM 27.1800 -82.2250 161° South 457 526 36,800 -1,440 Descending FlightAware ADS-B
Tue 09:10:42 PM 27.1270 -82.1890 149° Southeast 467 537 35,700 -2,824 Descending FlightAware ADS-B
Tue 09:11:32 PM 27.0340 -82.0950 138° Southeast 479 551 32,800 -3,333 Descending FlightAware ADS-B
Tue 09:12:12 PM 26.9710 -82.0300 137° Southeast 477 549 30,700 -2,894 Descending FlightAware ADS-B
Tue 09:12:57 PM 26.9000 -81.9560 137° Southeast 470 541 28,700 -2,612 Descending FlightAware ADS-B
Tue 09:13:37 PM 26.8400 -81.8930 137° Southeast 461 531 27,000 -2,550 Descending FlightAware ADS-B
Tue 09:14:17 PM 26.7750 -81.8270 138° Southeast 444 511 25,300 -2,460 Descending FlightAware ADS-B
Tue 09:15:17 PM 26.6840 -81.7340 138° Southeast 433 498 22,900 -1,985 Descending FlightAware ADS-B
Tue 09:16:27 PM 26.6150 -81.6630 137° Southeast 420 483 21,000 -1,745 Descending FlightAware ADS-B
Tue 09:17:07 PM 26.5660 -81.6140 138° Southeast 412 474 19,700 -2,025 Descending FlightAware ADS-B
Tue 09:17:47 PM 26.5100 -81.5560 137° Southeast 401 461 18,300 -2,259 Descending FlightAware ADS-B
Tue 09:18:32 PM 26.4480 -81.4930 138° Southeast 391 450 16,500 -2,400 Descending FlightAware ADS-B
Tue 09:19:17 PM 26.3850 -81.4280 137° Southeast 379 436 14,700 -1,976 Descending FlightAware ADS-B
Tue 09:19:57 PM 26.3510 -81.3940 138° Southeast 375 432 13,700 -1,200 Descending FlightAware ADS-B
Tue 09:20:32 PM 26.3070 -81.3490 137° Southeast 374 430 13,200 -353 Descending FlightAware ADS-B
Tue 09:21:22 PM 26.2530 -81.2930 137° Southeast 374 430 13,200  Level FlightAware ADS-B
Tue 09:22:02 PM 26.2100 -81.2480 137° Southeast 374 430 13,200 -3,273 Level FlightAware ADS-B
Tue 09:22:17 PM 26.2000 -81.1440 96° East 296 341 10,200 -4,533 Descending FlightAware ADS-B
Tue 09:22:47 PM 26.1800 -81.1070 121° Southeast 293 337 9,800 -960 Descending FlightAware ADS-B
Tue 09:23:07 PM 26.1670 -81.0810 119° Southeast 290 334 9,400 -436 Descending FlightAware ADS-B
Tue 09:23:42 PM 26.1450 -81.0410 121° Southeast 290 334 9,400  Level FlightAware ADS-B
Tue 09:24:12 PM 26.1280 -81.0080 120° Southeast 290 334 9,400 -2,100 Level FlightAware ADS-B
Tue 09:24:22 PM 26.1240 -80.9820 100° East 278 320 8,000 -2,400 Descending FlightAware ADS-B
Tue 09:24:47 PM 26.1210 -80.9500 96° East 278 320 8,000 -1,200 Level FlightAware ADS-B
Tue 09:25:37 PM 26.1160 -80.8740 94° East 270 311 6,500 -1,200 Descending FlightAware ADS-B
Tue 09:26:02 PM 26.1140 -80.8430 94° East 270 311 6,500 -176 Level FlightAware ADS-B
Tue 09:27:47 PM 26.1040 -80.7170 95° East 6,000 -207 Descending FlightAware ADS-B
Tue 09:28:27 PM 26.1000 -80.6640 95° East 244 281 6,000 -489 Level FlightAware ADS-B
Tue 09:30:02 PM 26.0910 -80.5490 95° East 232 267 4,900 -727 Descending FlightAware ADS-B
Tue 09:31:12 PM 26.0850 -80.4700 95° East 203 234 4,000 -680 Descending FlightAware ADS-B
Tue 09:32:32 PM 26.0790 -80.3930 95° East 180 207 3,200 -520 Descending FlightAware ADS-B
Tue 09:33:42 PM 26.0780 -80.3270 91° East 180 207 2,700 -643 Descending FlightAware ADS-B
Tue 09:34:52 PM 26.0770 -80.2650 91° East 157 181 1,700 -828 Descending FlightAware ADS-B
Tue 09:36:07 PM 26.0770 -80.2080 90° East 146 168 700 -672 Descending FlightAware ADS-B
Tue 09:36:57 PM 26.0770 -80.1690 90° East 147 169 300 -480 Descending FlightAware ADS-B

Login

Don't have an account? Register now (free) for customized features, flight alerts, and more!